createdAt,value
2022-08-27T00:03:08.724Z,23.812
2022-08-27T00:06:55.027Z,23.812
2022-08-27T00:10:39.995Z,23.75
2022-08-27T00:14:22.255Z,23.75
2022-08-27T00:18:09.939Z,23.75
2022-08-27T00:21:57.042Z,23.75
2022-08-27T00:25:39.091Z,23.75
2022-08-27T00:29:27.811Z,23.75
2022-08-27T00:33:24.321Z,23.75
2022-08-27T00:37:09.392Z,23.75
2022-08-27T00:40:52.369Z,23.75
2022-08-27T00:44:34.574Z,23.75
2022-08-27T00:48:18.268Z,23.687
2022-08-27T00:52:01.192Z,23.687
2022-08-27T00:55:56.108Z,23.687
2022-08-27T00:59:46.471Z,23.687
2022-08-27T01:03:11.961Z,23.687
2022-08-27T01:06:54.199Z,23.687
2022-08-27T01:10:39.521Z,23.687
2022-08-27T01:14:50.364Z,23.687
2022-08-27T01:18:33.250Z,23.625
2022-08-27T01:22:20.348Z,23.625
2022-08-27T01:26:08.940Z,23.625
2022-08-27T01:30:13.013Z,23.625
2022-08-27T01:33:57.832Z,23.625
2022-08-27T01:37:52.356Z,23.625
2022-08-27T01:41:53.632Z,23.625
2022-08-27T01:45:38.142Z,23.625
2022-08-27T01:49:24.389Z,23.625
2022-08-27T01:53:06.446Z,23.625
2022-08-27T01:56:49.038Z,23.562
2022-08-27T02:03:09.255Z,23.562
2022-08-27T02:06:51.514Z,23.562
2022-08-27T02:10:33.846Z,23.562
2022-08-27T02:14:33.539Z,23.562
2022-08-27T02:18:28.428Z,23.562
2022-08-27T02:22:16.734Z,23.5
2022-08-27T02:25:59.616Z,23.5
2022-08-27T02:29:42.245Z,23.5
2022-08-27T02:33:26.587Z,23.5
2022-08-27T02:37:08.719Z,23.5
2022-08-27T02:40:54.193Z,23.5
2022-08-27T02:44:55.372Z,23.5
2022-08-27T02:48:40.815Z,23.5
2022-08-27T02:52:25.443Z,23.5
2022-08-27T02:56:21.639Z,23.437
2022-08-27T03:03:11.923Z,23.437
2022-08-27T03:06:53.747Z,23.437
2022-08-27T03:10:45.886Z,23.437
2022-08-27T03:14:27.895Z,23.437
2022-08-27T03:18:10.744Z,23.437
2022-08-27T03:21:59.783Z,23.375
2022-08-27T03:25:59.413Z,23.375
2022-08-27T03:30:07.570Z,23.375
2022-08-27T03:33:51.031Z,23.375
2022-08-27T03:37:38.633Z,23.375
2022-08-27T03:41:21.296Z,23.375
2022-08-27T03:45:32.455Z,23.375
2022-08-27T03:49:53.702Z,23.312
2022-08-27T03:53:36.657Z,23.312
2022-08-27T03:57:18.700Z,23.312
2022-08-27T04:03:09.060Z,23.312
2022-08-27T04:08:45.328Z,23.312
2022-08-27T04:12:27.868Z,23.312
2022-08-27T04:16:24.805Z,23.312
2022-08-27T04:20:34.160Z,23.25
2022-08-27T04:24:19.810Z,23.25
2022-08-27T04:28:06.818Z,23.25
2022-08-27T04:31:54.780Z,23.25
2022-08-27T04:35:44.043Z,23.25
2022-08-27T04:39:26.435Z,23.25
2022-08-27T04:43:09.219Z,23.25
2022-08-27T04:46:55.286Z,23.187
2022-08-27T04:50:51.755Z,22.875
2022-08-27T04:54:53.972Z,22.562
2022-08-27T04:58:42.351Z,22.375
2022-08-27T05:03:08.874Z,22.187
2022-08-27T05:06:57.730Z,22.125
2022-08-27T05:10:42.485Z,22.125
2022-08-27T05:14:30.558Z,22.125
2022-08-27T05:18:13.099Z,22.125
2022-08-27T05:21:56.353Z,22.125
2022-08-27T05:25:39.949Z,22.062
2022-08-27T05:29:22.778Z,22.062
2022-08-27T05:33:06.708Z,22.125
2022-08-27T05:37:10.048Z,22.25
2022-08-27T05:40:54.576Z,22.375
2022-08-27T05:45:14.889Z,22.437
2022-08-27T05:49:08.947Z,22.5
2022-08-27T05:53:08.528Z,22.5
2022-08-27T05:56:53.648Z,22.562
2022-08-27T06:03:14.287Z,22.625
2022-08-27T06:07:04.128Z,22.625
2022-08-27T06:10:52.000Z,22.625
2022-08-27T06:14:38.353Z,22.687
2022-08-27T06:18:21.108Z,22.687
2022-08-27T06:22:36.616Z,22.75
2022-08-27T06:26:24.091Z,22.812
2022-08-27T06:30:06.834Z,22.812
2022-08-27T06:33:54.836Z,22.875
2022-08-27T06:37:39.718Z,22.875
2022-08-27T06:41:24.729Z,22.937
2022-08-27T06:45:11.818Z,22.937
2022-08-27T06:49:05.472Z,22.937
2022-08-27T06:52:55.704Z,23.0
2022-08-27T06:56:38.014Z,23.0
2022-08-27T07:03:12.999Z,23.125
2022-08-27T07:07:07.004Z,23.187
2022-08-27T07:11:08.316Z,23.187
2022-08-27T07:15:04.819Z,23.25
2022-08-27T07:19:07.683Z,23.312
2022-08-27T07:22:52.001Z,23.312
2022-08-27T07:26:34.216Z,23.312
2022-08-27T07:30:22.613Z,23.312
2022-08-27T07:34:22.783Z,23.312
2022-08-27T07:38:13.204Z,23.312
2022-08-27T07:42:03.027Z,23.312
2022-08-27T07:45:55.693Z,23.312
2022-08-27T07:49:43.374Z,23.312
2022-08-27T07:53:25.388Z,23.312
2022-08-27T07:57:16.604Z,23.312
2022-08-27T08:03:13.022Z,23.375
2022-08-27T08:07:00.352Z,23.312
2022-08-27T08:10:46.852Z,23.312
2022-08-27T08:14:28.741Z,23.312
2022-08-27T08:18:17.210Z,23.375
2022-08-27T08:22:50.570Z,23.375
2022-08-27T08:26:37.069Z,23.375
2022-08-27T08:30:19.593Z,23.375
2022-08-27T08:34:06.773Z,23.375
2022-08-27T08:38:02.320Z,23.437
2022-08-27T08:41:45.269Z,23.437
2022-08-27T08:45:41.840Z,23.437
2022-08-27T08:49:26.541Z,23.437
2022-08-27T08:53:21.016Z,23.437
2022-08-27T08:57:03.083Z,23.437
2022-08-27T09:03:11.151Z,23.437
2022-08-27T09:06:58.416Z,23.437
2022-08-27T09:11:16.981Z,23.437
2022-08-27T09:15:07.167Z,23.437
2022-08-27T09:19:13.437Z,23.437
2022-08-27T09:23:20.780Z,23.437
2022-08-27T09:27:09.434Z,23.5
2022-08-27T09:30:57.320Z,23.5
2022-08-27T09:34:46.385Z,23.562
2022-08-27T09:38:28.701Z,23.562
2022-08-27T09:42:17.032Z,23.562
2022-08-27T09:46:01.584Z,23.625
2022-08-27T09:49:44.227Z,23.625
2022-08-27T09:53:32.172Z,23.625
2022-08-27T09:57:17.928Z,23.625
2022-08-27T10:03:09.562Z,23.625
2022-08-27T10:06:55.323Z,23.625
2022-08-27T10:10:42.565Z,23.625
2022-08-27T10:14:34.942Z,23.625
2022-08-27T10:18:29.160Z,23.625
2022-08-27T10:22:31.354Z,23.625
2022-08-27T10:26:13.571Z,23.625
2022-08-27T10:30:08.481Z,23.625
2022-08-27T10:34:06.359Z,23.625
2022-08-27T10:38:14.477Z,23.625
2022-08-27T10:41:58.910Z,23.625
2022-08-27T10:46:03.763Z,23.625
2022-08-27T10:49:53.688Z,23.687
2022-08-27T10:53:40.979Z,23.75
2022-08-27T10:58:20.965Z,23.75
2022-08-27T11:03:09.667Z,23.75
2022-08-27T11:06:57.522Z,23.75
2022-08-27T11:10:53.065Z,23.75
2022-08-27T11:15:50.880Z,23.75
2022-08-27T11:19:36.776Z,23.75
2022-08-27T11:23:19.225Z,23.75
2022-08-27T11:27:07.665Z,23.812
2022-08-27T11:31:05.046Z,23.812
2022-08-27T11:34:55.158Z,23.875
2022-08-27T11:38:42.434Z,23.875
2022-08-27T11:42:34.638Z,23.875
2022-08-27T11:46:20.655Z,23.937
2022-08-27T11:50:19.162Z,23.937
2022-08-27T11:54:24.738Z,23.937
2022-08-27T11:58:06.877Z,23.937
2022-08-27T12:03:07.973Z,23.937
2022-08-27T12:06:56.339Z,23.937
2022-08-27T12:10:43.496Z,23.937
2022-08-27T12:14:32.430Z,24.0
2022-08-27T12:18:25.199Z,24.0
2022-08-27T12:22:07.441Z,24.062
2022-08-27T12:25:49.478Z,24.062
2022-08-27T12:29:31.772Z,24.062
2022-08-27T12:33:18.016Z,24.125
2022-08-27T12:37:14.700Z,24.125
2022-08-27T12:41:04.710Z,24.187
2022-08-27T12:44:50.503Z,24.187
2022-08-27T12:48:40.227Z,24.187
2022-08-27T12:52:44.083Z,24.187
2022-08-27T12:56:26.393Z,24.125
2022-08-27T13:03:19.222Z,24.125
2022-08-27T13:07:04.858Z,24.125
2022-08-27T13:10:47.356Z,24.125
2022-08-27T13:14:29.902Z,24.125
2022-08-27T13:18:15.406Z,24.125
2022-08-27T13:22:01.072Z,24.125
2022-08-27T13:25:47.749Z,24.187
2022-08-27T13:29:35.690Z,24.187
2022-08-27T13:33:33.058Z,24.187
2022-08-27T13:37:16.004Z,24.187
2022-08-27T13:40:58.949Z,24.187
2022-08-27T13:44:48.628Z,24.187
2022-08-27T13:48:36.109Z,24.187
2022-08-27T13:52:24.752Z,24.187
2022-08-27T13:56:11.365Z,24.187
2022-08-27T14:00:00.990Z,24.187
2022-08-27T14:03:23.305Z,24.187
2022-08-27T14:07:13.258Z,24.25
2022-08-27T14:10:55.973Z,24.187
2022-08-27T14:14:38.080Z,24.25
2022-08-27T14:18:20.287Z,24.25
2022-08-27T14:22:37.662Z,24.25
2022-08-27T14:26:19.788Z,24.25
2022-08-27T14:30:02.325Z,24.25
2022-08-27T14:33:50.134Z,24.25
2022-08-27T14:37:37.955Z,24.25
2022-08-27T14:41:34.524Z,24.25
2022-08-27T14:45:26.883Z,24.25
2022-08-27T14:49:35.223Z,24.25
2022-08-27T14:53:17.309Z,24.25
2022-08-27T14:57:15.394Z,24.25
2022-08-27T15:03:14.429Z,24.187
2022-08-27T15:07:09.739Z,24.187
2022-08-27T15:11:03.996Z,24.187
2022-08-27T15:15:08.330Z,24.187
2022-08-27T15:19:37.185Z,24.25
2022-08-27T15:23:22.104Z,24.25
2022-08-27T15:27:04.129Z,24.25
2022-08-27T15:30:53.829Z,24.312
2022-08-27T15:34:35.980Z,24.25
2022-08-27T15:38:18.524Z,24.187
2022-08-27T15:42:33.463Z,24.187
2022-08-27T15:46:17.085Z,24.187
2022-08-27T15:50:04.351Z,24.187
2022-08-27T15:54:12.133Z,24.187
2022-08-27T15:57:58.708Z,24.125
2022-08-27T16:03:09.276Z,24.125
2022-08-27T16:08:42.385Z,24.125
2022-08-27T16:12:27.279Z,24.187
2022-08-27T16:16:10.930Z,24.187
2022-08-27T16:20:00.241Z,24.125
2022-08-27T16:23:43.682Z,24.125
2022-08-27T16:27:26.070Z,24.062
2022-08-27T16:31:11.961Z,24.125
2022-08-27T16:35:03.681Z,24.062
2022-08-27T16:38:46.273Z,24.062
2022-08-27T16:42:34.984Z,24.062
2022-08-27T16:46:17.951Z,24.062
2022-08-27T16:50:00.567Z,24.062
2022-08-27T16:53:55.168Z,24.062
2022-08-27T16:57:38.049Z,24.125
2022-08-27T17:03:14.646Z,24.125
2022-08-27T17:08:26.881Z,24.187
2022-08-27T17:12:31.610Z,24.062
2022-08-27T17:16:24.771Z,24.0
2022-08-27T17:20:06.889Z,23.937
2022-08-27T17:23:49.360Z,23.875
2022-08-27T17:27:31.636Z,23.875
2022-08-27T17:31:14.562Z,23.812
2022-08-27T17:35:06.203Z,23.812
2022-08-27T17:38:54.913Z,23.75
2022-08-27T17:42:39.969Z,23.687
2022-08-27T17:46:25.185Z,23.687
2022-08-27T17:50:14.072Z,23.687
2022-08-27T17:54:00.490Z,23.625
2022-08-27T17:57:43.602Z,23.625
2022-08-27T18:03:15.911Z,23.562
2022-08-27T18:06:58.888Z,23.562
2022-08-27T18:10:42.615Z,23.562
2022-08-27T18:14:31.364Z,23.562
2022-08-27T18:18:21.033Z,23.562
2022-08-27T18:22:35.101Z,23.5
2022-08-27T18:26:25.901Z,23.5
2022-08-27T18:30:10.745Z,23.5
2022-08-27T18:33:59.932Z,23.5
2022-08-27T18:37:45.649Z,23.437
2022-08-27T18:41:35.010Z,23.312
2022-08-27T18:45:17.634Z,23.187
2022-08-27T18:49:01.366Z,23.125
2022-08-27T18:52:59.336Z,23.062
2022-08-27T18:56:43.350Z,23.062
2022-08-27T19:03:16.463Z,23.0
2022-08-27T19:07:00.092Z,23.0
2022-08-27T19:10:51.178Z,22.937
2022-08-27T19:14:34.482Z,22.937
2022-08-27T19:18:20.754Z,22.937
2022-08-27T19:22:05.845Z,22.937
2022-08-27T19:26:00.784Z,22.937
2022-08-27T19:29:46.232Z,22.875
2022-08-27T19:33:34.774Z,22.875
2022-08-27T19:37:17.451Z,22.812
2022-08-27T19:41:02.176Z,22.812
2022-08-27T19:44:44.384Z,22.812
2022-08-27T19:48:32.304Z,22.812
2022-08-27T19:52:16.396Z,22.75
2022-08-27T19:56:42.314Z,22.75
2022-08-27T20:03:11.720Z,22.625
2022-08-27T20:07:12.418Z,22.562
2022-08-27T20:11:08.911Z,22.562
2022-08-27T20:15:12.430Z,22.562
2022-08-27T20:19:04.980Z,22.5
2022-08-27T20:22:53.029Z,22.5
2022-08-27T20:26:39.324Z,22.5
2022-08-27T20:30:33.406Z,22.437
2022-08-27T20:34:22.726Z,22.437
2022-08-27T20:38:10.933Z,22.375
2022-08-27T20:41:56.077Z,22.375
2022-08-27T20:45:46.470Z,22.375
2022-08-27T20:49:39.633Z,22.375
2022-08-27T20:53:52.595Z,22.375
2022-08-27T20:57:42.398Z,22.375
2022-08-27T21:03:11.661Z,22.312
2022-08-27T21:07:00.040Z,22.25
2022-08-27T21:10:45.927Z,22.25
2022-08-27T21:14:50.380Z,22.187
2022-08-27T21:18:50.730Z,22.187
2022-08-27T21:22:38.507Z,22.187
2022-08-27T21:26:20.944Z,22.125
2022-08-27T21:30:03.594Z,22.125
2022-08-27T21:33:48.071Z,22.125
2022-08-27T21:37:36.980Z,22.062
2022-08-27T21:41:20.765Z,22.062
2022-08-27T21:45:08.439Z,22.0
2022-08-27T21:48:59.044Z,22.0
2022-08-27T21:52:54.612Z,22.0
2022-08-27T21:56:39.755Z,21.937
2022-08-27T22:03:31.367Z,21.875
2022-08-27T22:07:26.942Z,21.875
2022-08-27T22:11:13.657Z,21.812
2022-08-27T22:15:01.892Z,21.75
2022-08-27T22:18:54.301Z,21.75
2022-08-27T22:22:40.006Z,21.687
2022-08-27T22:26:24.222Z,21.687
2022-08-27T22:30:11.281Z,21.562
2022-08-27T22:33:55.152Z,21.5
2022-08-27T22:37:37.796Z,21.5
2022-08-27T22:41:46.143Z,21.437
2022-08-27T22:45:40.419Z,21.375
2022-08-27T22:49:27.651Z,21.312
2022-08-27T22:53:15.122Z,21.25
2022-08-27T22:56:57.306Z,21.187
2022-08-27T23:03:08.717Z,21.125
2022-08-27T23:07:33.172Z,21.062
2022-08-27T23:11:15.587Z,21.062
2022-08-27T23:14:57.419Z,21.062
2022-08-27T23:18:43.070Z,21.0
2022-08-27T23:22:28.021Z,20.937
2022-08-27T23:26:18.199Z,20.875
2022-08-27T23:30:07.748Z,20.875
2022-08-27T23:33:50.300Z,20.75
2022-08-27T23:37:32.573Z,20.812
2022-08-27T23:41:16.339Z,20.75
2022-08-27T23:44:58.502Z,20.812
2022-08-27T23:48:41.311Z,20.937
2022-08-27T23:52:27.371Z,21.062
2022-08-27T23:56:09.762Z,21.125
